sensor_id;sensor_type;location;lat;lon;timestamp;pressure;altitude;pressure_sealevel;temperature;humidity
76794;BME280;65745;50.278;18.192;2022-12-18T00:01:37;101213.71;;;19.01;29.18
76794;BME280;65745;50.278;18.192;2022-12-18T00:04:18;101213.02;;;19.01;29.24
76794;BME280;65745;50.278;18.192;2022-12-18T00:06:52;101211.27;;;19.00;29.19
76794;BME280;65745;50.278;18.192;2022-12-18T00:09:24;101217.20;;;19.00;29.32
76794;BME280;65745;50.278;18.192;2022-12-18T00:12:10;101226.11;;;19.00;29.19
76794;BME280;65745;50.278;18.192;2022-12-18T00:14:48;101227.66;;;18.99;29.23
76794;BME280;65745;50.278;18.192;2022-12-18T00:17:20;101225.39;;;18.99;29.17
76794;BME280;65745;50.278;18.192;2022-12-18T00:19:53;101226.96;;;18.99;29.16
76794;BME280;65745;50.278;18.192;2022-12-18T00:22:25;101226.08;;;18.98;29.18
76794;BME280;65745;50.278;18.192;2022-12-18T00:24:57;101230.79;;;18.98;29.15
76794;BME280;65745;50.278;18.192;2022-12-18T00:27:29;101234.63;;;18.97;29.18
76794;BME280;65745;50.278;18.192;2022-12-18T00:30:02;101243.19;;;18.97;29.21
76794;BME280;65745;50.278;18.192;2022-12-18T00:32:35;101246.67;;;18.97;29.17
76794;BME280;65745;50.278;18.192;2022-12-18T00:35:09;101247.19;;;18.96;29.18
76794;BME280;65745;50.278;18.192;2022-12-18T00:37:41;101252.96;;;18.96;29.16
76794;BME280;65745;50.278;18.192;2022-12-18T00:40:15;101253.85;;;18.96;29.16
76794;BME280;65745;50.278;18.192;2022-12-18T00:42:47;101259.25;;;18.95;29.12
76794;BME280;65745;50.278;18.192;2022-12-18T00:45:30;101264.14;;;18.95;29.09
76794;BME280;65745;50.278;18.192;2022-12-18T00:48:03;101267.45;;;18.94;29.16
76794;BME280;65745;50.278;18.192;2022-12-18T00:50:35;101267.97;;;18.94;29.28
76794;BME280;65745;50.278;18.192;2022-12-18T00:53:09;101266.73;;;18.93;29.15
76794;BME280;65745;50.278;18.192;2022-12-18T00:55:42;101270.40;;;18.93;29.25
76794;BME280;65745;50.278;18.192;2022-12-18T00:58:16;101270.40;;;18.93;29.24
76794;BME280;65745;50.278;18.192;2022-12-18T01:00:48;101273.38;;;18.94;29.23
76794;BME280;65745;50.278;18.192;2022-12-18T01:03:20;101273.02;;;18.94;29.24
76794;BME280;65745;50.278;18.192;2022-12-18T01:05:52;101275.13;;;18.94;29.23
76794;BME280;65745;50.278;18.192;2022-12-18T01:08:26;101274.95;;;18.94;29.12
76794;BME280;65745;50.278;18.192;2022-12-18T01:10:58;101274.09;;;18.95;29.15
76794;BME280;65745;50.278;18.192;2022-12-18T01:13:30;101273.91;;;18.94;29.24
76794;BME280;65745;50.278;18.192;2022-12-18T01:16:02;101276.19;;;18.94;29.18
76794;BME280;65745;50.278;18.192;2022-12-18T01:18:37;101278.28;;;18.94;29.28
76794;BME280;65745;50.278;18.192;2022-12-18T01:21:11;101275.14;;;18.95;29.21
76794;BME280;65745;50.278;18.192;2022-12-18T01:23:45;101280.02;;;18.96;29.18
76794;BME280;65745;50.278;18.192;2022-12-18T01:26:19;101283.69;;;18.97;29.26
76794;BME280;65745;50.278;18.192;2022-12-18T01:28:55;101290.33;;;18.97;29.21
76794;BME280;65745;50.278;18.192;2022-12-18T01:31:29;101296.10;;;18.98;29.27
76794;BME280;65745;50.278;18.192;2022-12-18T01:34:03;101299.95;;;18.98;29.20
76794;BME280;65745;50.278;18.192;2022-12-18T01:36:39;101299.61;;;18.99;29.29
76794;BME280;65745;50.278;18.192;2022-12-18T01:39:14;101299.45;;;18.99;29.27
76794;BME280;65745;50.278;18.192;2022-12-18T01:41:47;101303.30;;;19.00;29.34
76794;BME280;65745;50.278;18.192;2022-12-18T01:44:55;101310.46;;;19.01;29.31
76794;BME280;65745;50.278;18.192;2022-12-18T01:47:32;101317.63;;;19.01;29.30
76794;BME280;65745;50.278;18.192;2022-12-18T01:50:08;101318.85;;;19.01;29.23
76794;BME280;65745;50.278;18.192;2022-12-18T01:52:46;101321.80;;;19.02;29.25
76794;BME280;65745;50.278;18.192;2022-12-18T01:55:21;101324.79;;;19.01;29.28
76794;BME280;65745;50.278;18.192;2022-12-18T01:57:56;101328.45;;;19.02;29.29
76794;BME280;65745;50.278;18.192;2022-12-18T02:00:29;101331.95;;;19.02;29.30
76794;BME280;65745;50.278;18.192;2022-12-18T02:03:02;101335.62;;;19.02;29.31
76794;BME280;65745;50.278;18.192;2022-12-18T02:05:43;101337.88;;;19.02;29.24
76794;BME280;65745;50.278;18.192;2022-12-18T02:08:19;101337.19;;;19.02;29.38
76794;BME280;65745;50.278;18.192;2022-12-18T02:11:00;101339.11;;;19.02;29.27
76794;BME280;65745;50.278;18.192;2022-12-18T02:13:43;101340.67;;;19.02;29.25
76794;BME280;65745;50.278;18.192;2022-12-18T02:16:19;101343.30;;;19.02;29.29
76794;BME280;65745;50.278;18.192;2022-12-18T02:18:56;101348.02;;;19.02;29.33
76794;BME280;65745;50.278;18.192;2022-12-18T02:21:36;101344.69;;;19.02;29.26
76794;BME280;65745;50.278;18.192;2022-12-18T02:24:24;101353.77;;;19.03;29.27
76794;BME280;65745;50.278;18.192;2022-12-18T02:27:03;101353.95;;;19.02;29.27
76794;BME280;65745;50.278;18.192;2022-12-18T02:29:40;101355.35;;;19.02;29.31
76794;BME280;65745;50.278;18.192;2022-12-18T02:32:17;101355.17;;;19.02;29.28
76794;BME280;65745;50.278;18.192;2022-12-18T02:34:52;101358.67;;;19.01;29.29
76794;BME280;65745;50.278;18.192;2022-12-18T02:37:27;101366.36;;;19.02;29.27
76794;BME280;65745;50.278;18.192;2022-12-18T02:40:05;101363.20;;;19.01;29.23
76794;BME280;65745;50.278;18.192;2022-12-18T02:42:39;101364.96;;;19.01;29.31
76794;BME280;65745;50.278;18.192;2022-12-18T02:45:12;101364.79;;;19.00;29.28
76794;BME280;65745;50.278;18.192;2022-12-18T02:47:48;101371.06;;;19.00;29.26
76794;BME280;65745;50.278;18.192;2022-12-18T02:50:26;101371.94;;;19.00;29.21
76794;BME280;65745;50.278;18.192;2022-12-18T02:53:09;101375.60;;;19.00;29.28
76794;BME280;65745;50.278;18.192;2022-12-18T02:55:52;101384.15;;;18.99;29.28
76794;BME280;65745;50.278;18.192;2022-12-18T02:58:30;101384.14;;;18.99;29.26
76794;BME280;65745;50.278;18.192;2022-12-18T03:01:13;101385.02;;;18.99;29.26
76794;BME280;65745;50.278;18.192;2022-12-18T03:03:50;101386.23;;;18.98;29.23
76794;BME280;65745;50.278;18.192;2022-12-18T03:06:27;101395.30;;;18.98;29.23
76794;BME280;65745;50.278;18.192;2022-12-18T03:09:04;101392.51;;;18.98;29.18
76794;BME280;65745;50.278;18.192;2022-12-18T03:11:41;101396.87;;;18.98;29.25
76794;BME280;65745;50.278;18.192;2022-12-18T03:14:34;101397.73;;;18.97;29.28
76794;BME280;65745;50.278;18.192;2022-12-18T03:17:19;101398.77;;;18.96;29.15
76794;BME280;65745;50.278;18.192;2022-12-18T03:19:56;101399.30;;;18.96;29.21
76794;BME280;65745;50.278;18.192;2022-12-18T03:22:32;101397.55;;;18.95;29.29
76794;BME280;65745;50.278;18.192;2022-12-18T03:25:08;101396.33;;;18.95;29.20
76794;BME280;65745;50.278;18.192;2022-12-18T03:27:44;101399.13;;;18.95;29.23
76794;BME280;65745;50.278;18.192;2022-12-18T03:30:19;101402.61;;;18.94;29.24
76794;BME280;65745;50.278;18.192;2022-12-18T03:32:53;101409.59;;;18.94;29.20
76794;BME280;65745;50.278;18.192;2022-12-18T03:35:33;101415.70;;;18.93;29.33
76794;BME280;65745;50.278;18.192;2022-12-18T03:38:08;101413.95;;;18.93;29.21
76794;BME280;65745;50.278;18.192;2022-12-18T03:40:49;101411.32;;;18.93;29.17
76794;BME280;65745;50.278;18.192;2022-12-18T03:43:33;101409.73;;;18.92;29.27
76794;BME280;65745;50.278;18.192;2022-12-18T03:46:15;101414.11;;;18.92;29.20
76794;BME280;65745;50.278;18.192;2022-12-18T03:48:59;101413.39;;;18.91;29.23
76794;BME280;65745;50.278;18.192;2022-12-18T03:51:39;101417.94;;;18.91;29.21
76794;BME280;65745;50.278;18.192;2022-12-18T03:54:15;101421.08;;;18.90;29.16
76794;BME280;65745;50.278;18.192;2022-12-18T03:56:59;101424.23;;;18.91;29.21
76794;BME280;65745;50.278;18.192;2022-12-18T03:59:34;101431.20;;;18.89;29.19
76794;BME280;65745;50.278;18.192;2022-12-18T04:02:08;101438.71;;;18.90;29.14
76794;BME280;65745;50.278;18.192;2022-12-18T04:04:41;101441.50;;;18.89;29.17
76794;BME280;65745;50.278;18.192;2022-12-18T04:07:15;101440.61;;;18.88;29.13
76794;BME280;65745;50.278;18.192;2022-12-18T04:09:49;101440.08;;;18.88;29.13
76794;BME280;65745;50.278;18.192;2022-12-18T04:12:27;101442.52;;;18.88;29.10
76794;BME280;65745;50.278;18.192;2022-12-18T04:15:00;101445.83;;;18.86;29.11
76794;BME280;65745;50.278;18.192;2022-12-18T04:17:33;101449.14;;;18.86;29.12
76794;BME280;65745;50.278;18.192;2022-12-18T04:20:07;101463.11;;;18.86;29.18
76794;BME280;65745;50.278;18.192;2022-12-18T04:22:39;101465.73;;;18.86;29.21
76794;BME280;65745;50.278;18.192;2022-12-18T04:25:15;101466.43;;;18.86;29.18
76794;BME280;65745;50.278;18.192;2022-12-18T04:27:56;101467.30;;;18.86;29.26
76794;BME280;65745;50.278;18.192;2022-12-18T04:30:28;101465.73;;;18.87;29.22
76794;BME280;65745;50.278;18.192;2022-12-18T04:33:01;101469.23;;;18.88;29.12
76794;BME280;65745;50.278;18.192;2022-12-18T04:35:33;101471.18;;;18.89;29.18
76794;BME280;65745;50.278;18.192;2022-12-18T04:38:07;101468.21;;;18.89;29.28
76794;BME280;65745;50.278;18.192;2022-12-18T04:40:40;101473.48;;;18.90;29.29
76794;BME280;65745;50.278;18.192;2022-12-18T04:43:18;101478.55;;;18.91;29.23
76794;BME280;65745;50.278;18.192;2022-12-18T04:45:51;101482.91;;;18.92;29.32
76794;BME280;65745;50.278;18.192;2022-12-18T04:48:23;101482.05;;;18.93;29.36
76794;BME280;65745;50.278;18.192;2022-12-18T04:50:55;101486.95;;;18.94;29.22
76794;BME280;65745;50.278;18.192;2022-12-18T04:53:27;101489.58;;;18.94;29.30
76794;BME280;65745;50.278;18.192;2022-12-18T04:56:07;101492.73;;;18.95;29.37
76794;BME280;65745;50.278;18.192;2022-12-18T04:58:42;101489.94;;;18.95;29.26
76794;BME280;65745;50.278;18.192;2022-12-18T05:01:18;101488.20;;;18.96;29.32
76794;BME280;65745;50.278;18.192;2022-12-18T05:03:52;101486.80;;;18.96;29.26
76794;BME280;65745;50.278;18.192;2022-12-18T05:06:24;101494.14;;;18.96;29.29
76794;BME280;65745;50.278;18.192;2022-12-18T05:08:56;101497.45;;;18.96;29.34
76794;BME280;65745;50.278;18.192;2022-12-18T05:11:28;101496.41;;;18.97;29.26
76794;BME280;65745;50.278;18.192;2022-12-18T05:14:00;101494.83;;;18.97;29.19
76794;BME280;65745;50.278;18.192;2022-12-18T05:16:32;101493.95;;;18.96;29.25
76794;BME280;65745;50.278;18.192;2022-12-18T05:19:04;101496.22;;;18.96;29.23
76794;BME280;65745;50.278;18.192;2022-12-18T05:21:36;101496.92;;;18.96;29.27
76794;BME280;65745;50.278;18.192;2022-12-18T05:24:09;101495.00;;;18.96;29.26
76794;BME280;65745;50.278;18.192;2022-12-18T05:26:41;101498.33;;;18.95;29.19
76794;BME280;65745;50.278;18.192;2022-12-18T05:29:13;101502.52;;;18.96;29.20
76794;BME280;65745;50.278;18.192;2022-12-18T05:31:45;101503.91;;;18.96;29.28
76794;BME280;65745;50.278;18.192;2022-12-18T05:34:17;101508.45;;;18.95;29.28
76794;BME280;65745;50.278;18.192;2022-12-18T05:36:49;101508.64;;;18.95;29.22
76794;BME280;65745;50.278;18.192;2022-12-18T05:39:21;101515.42;;;18.94;29.20
76794;BME280;65745;50.278;18.192;2022-12-18T05:41:53;101518.21;;;18.94;29.22
76794;BME280;65745;50.278;18.192;2022-12-18T05:44:25;101522.23;;;18.94;29.30
76794;BME280;65745;50.278;18.192;2022-12-18T05:46:57;101523.44;;;18.93;29.18
76794;BME280;65745;50.278;18.192;2022-12-18T05:49:30;101523.61;;;18.93;29.20
76794;BME280;65745;50.278;18.192;2022-12-18T05:52:02;101521.33;;;18.92;29.19
76794;BME280;65745;50.278;18.192;2022-12-18T05:54:34;101525.52;;;18.92;29.21
76794;BME280;65745;50.278;18.192;2022-12-18T05:57:06;101531.80;;;18.91;29.24
76794;BME280;65745;50.278;18.192;2022-12-18T05:59:38;101527.25;;;18.91;29.23
76794;BME280;65745;50.278;18.192;2022-12-18T06:02:10;101531.27;;;18.90;29.25
76794;BME280;65745;50.278;18.192;2022-12-18T06:04:43;101531.96;;;18.90;29.11
76794;BME280;65745;50.278;18.192;2022-12-18T06:07:14;101536.86;;;18.90;29.25
76794;BME280;65745;50.278;18.192;2022-12-18T06:09:47;101542.61;;;18.89;29.28
76794;BME280;65745;50.278;18.192;2022-12-18T06:12:19;101546.79;;;18.88;29.20
76794;BME280;65745;50.278;18.192;2022-12-18T06:14:51;101548.88;;;18.88;29.23
76794;BME280;65745;50.278;18.192;2022-12-18T06:17:23;101548.86;;;18.88;29.16
76794;BME280;65745;50.278;18.192;2022-12-18T06:19:59;101552.01;;;18.87;29.25
76794;BME280;65745;50.278;18.192;2022-12-18T06:22:33;101560.20;;;18.86;29.28
76794;BME280;65745;50.278;18.192;2022-12-18T06:25:07;101562.48;;;18.86;29.07
76794;BME280;65745;50.278;18.192;2022-12-18T06:27:40;101567.89;;;18.85;29.19
76794;BME280;65745;50.278;18.192;2022-12-18T06:30:14;101572.41;;;18.84;29.18
76794;BME280;65745;50.278;18.192;2022-12-18T06:32:46;101569.08;;;18.84;29.18
76794;BME280;65745;50.278;18.192;2022-12-18T06:35:25;101568.20;;;18.83;29.16
76794;BME280;65745;50.278;18.192;2022-12-18T06:37:58;101569.77;;;18.83;29.21
76794;BME280;65745;50.278;18.192;2022-12-18T06:40:30;101577.27;;;18.83;29.16
76794;BME280;65745;50.278;18.192;2022-12-18T06:43:02;101581.10;;;18.82;29.21
76794;BME280;65745;50.278;18.192;2022-12-18T06:45:34;101584.77;;;18.82;29.18
76794;BME280;65745;50.278;18.192;2022-12-18T06:48:07;101584.76;;;18.82;29.15
76794;BME280;65745;50.278;18.192;2022-12-18T06:50:43;101583.88;;;18.81;29.16
76794;BME280;65745;50.278;18.192;2022-12-18T06:53:15;101586.33;;;18.80;29.22
76794;BME280;65745;50.278;18.192;2022-12-18T06:55:47;101590.69;;;18.80;29.22
76794;BME280;65745;50.278;18.192;2022-12-18T06:58:19;101596.27;;;18.80;29.17
76794;BME280;65745;50.278;18.192;2022-12-18T07:00:51;101599.08;;;18.80;29.19
76794;BME280;65745;50.278;18.192;2022-12-18T07:03:23;101596.63;;;18.81;29.12
76794;BME280;65745;50.278;18.192;2022-12-18T07:05:55;101600.64;;;18.81;29.25
76794;BME280;65745;50.278;18.192;2022-12-18T07:08:28;101607.11;;;18.82;29.17
76794;BME280;65745;50.278;18.192;2022-12-18T07:11:02;101608.00;;;18.83;29.23
76794;BME280;65745;50.278;18.192;2022-12-18T07:13:34;101608.02;;;18.83;29.23
76794;BME280;65745;50.278;18.192;2022-12-18T07:16:09;101609.96;;;18.85;29.24
76794;BME280;65745;50.278;18.192;2022-12-18T07:18:50;101616.25;;;18.86;29.18
76794;BME280;65745;50.278;18.192;2022-12-18T07:21:24;101615.90;;;18.86;29.15
76794;BME280;65745;50.278;18.192;2022-12-18T07:23:56;101622.90;;;18.87;29.26
76794;BME280;65745;50.278;18.192;2022-12-18T07:26:28;101625.88;;;18.88;29.24
76794;BME280;65745;50.278;18.192;2022-12-18T07:29:00;101630.95;;;18.88;29.21
76794;BME280;65745;50.278;18.192;2022-12-18T07:31:32;101636.56;;;18.90;29.22
76794;BME280;65745;50.278;18.192;2022-12-18T07:34:04;101639.70;;;18.90;29.22
76794;BME280;65745;50.278;18.192;2022-12-18T07:36:36;101645.13;;;18.90;29.21
76794;BME280;65745;50.278;18.192;2022-12-18T07:39:10;101652.81;;;18.90;29.31
76794;BME280;65745;50.278;18.192;2022-12-18T07:41:42;101656.48;;;18.90;29.20
76794;BME280;65745;50.278;18.192;2022-12-18T07:44:19;101658.59;;;18.91;29.23
76794;BME280;65745;50.278;18.192;2022-12-18T07:46:51;101657.71;;;18.91;29.19
76794;BME280;65745;50.278;18.192;2022-12-18T07:49:23;101658.23;;;18.91;29.26
76794;BME280;65745;50.278;18.192;2022-12-18T07:51:56;101658.75;;;18.90;29.18
76794;BME280;65745;50.278;18.192;2022-12-18T07:54:29;101654.56;;;18.90;29.26
76794;BME280;65745;50.278;18.192;2022-12-18T07:57:01;101658.39;;;18.90;29.20
76794;BME280;65745;50.278;18.192;2022-12-18T07:59:33;101659.80;;;18.90;29.17
76794;BME280;65745;50.278;18.192;2022-12-18T08:02:05;101661.86;;;18.88;29.18
76794;BME280;65745;50.278;18.192;2022-12-18T08:04:37;101662.91;;;18.88;29.22
76794;BME280;65745;50.278;18.192;2022-12-18T08:07:09;101667.09;;;18.88;29.19
76794;BME280;65745;50.278;18.192;2022-12-18T08:09:41;101665.34;;;18.87;29.19
76794;BME280;65745;50.278;18.192;2022-12-18T08:12:14;101668.66;;;18.88;29.14
76794;BME280;65745;50.278;18.192;2022-12-18T08:14:46;101667.08;;;18.87;29.19
76794;BME280;65745;50.278;18.192;2022-12-18T08:17:18;101660.80;;;18.87;29.20
76794;BME280;65745;50.278;18.192;2022-12-18T08:19:50;101662.88;;;18.86;29.16
76794;BME280;65745;50.278;18.192;2022-12-18T08:22:22;101670.56;;;18.86;29.13
76794;BME280;65745;50.278;18.192;2022-12-18T08:24:55;101684.17;;;18.85;29.24
76794;BME280;65745;50.278;18.192;2022-12-18T08:27:27;101683.11;;;18.85;29.14
76794;BME280;65745;50.278;18.192;2022-12-18T08:30:00;101689.58;;;18.84;29.23
76794;BME280;65745;50.278;18.192;2022-12-18T08:32:32;101696.91;;;18.84;29.12
76794;BME280;65745;50.278;18.192;2022-12-18T08:35:06;101697.06;;;18.84;29.16
76794;BME280;65745;50.278;18.192;2022-12-18T08:37:39;101696.89;;;18.84;29.07
76794;BME280;65745;50.278;18.192;2022-12-18T08:40:13;101700.38;;;18.83;29.19
76794;BME280;65745;50.278;18.192;2022-12-18T08:42:45;101703.85;;;18.83;29.12
76794;BME280;65745;50.278;18.192;2022-12-18T08:45:35;101706.46;;;18.82;29.14
76794;BME280;65745;50.278;18.192;2022-12-18T08:48:08;101710.99;;;18.82;29.21
76794;BME280;65745;50.278;18.192;2022-12-18T08:50:40;101714.48;;;18.82;29.12
76794;BME280;65745;50.278;18.192;2022-12-18T08:53:12;101712.39;;;18.81;29.09
76794;BME280;65745;50.278;18.192;2022-12-18T08:55:44;101712.04;;;18.80;29.14
76794;BME280;65745;50.278;18.192;2022-12-18T08:58:20;101713.09;;;18.80;29.06
76794;BME280;65745;50.278;18.192;2022-12-18T09:00:52;101710.81;;;18.80;29.12
76794;BME280;65745;50.278;18.192;2022-12-18T09:03:24;101708.88;;;18.79;29.23
76794;BME280;65745;50.278;18.192;2022-12-18T09:05:56;101710.80;;;18.79;29.15
76794;BME280;65745;50.278;18.192;2022-12-18T09:08:29;101710.98;;;18.79;29.15
76794;BME280;65745;50.278;18.192;2022-12-18T09:11:01;101713.58;;;18.78;29.14
76794;BME280;65745;50.278;18.192;2022-12-18T09:13:33;101715.65;;;18.78;29.09
76794;BME280;65745;50.278;18.192;2022-12-18T09:16:06;101719.14;;;18.77;29.20
76794;BME280;65745;50.278;18.192;2022-12-18T09:18:39;101717.73;;;18.77;29.08
76794;BME280;65745;50.278;18.192;2022-12-18T09:21:14;101717.38;;;18.77;29.07
76794;BME280;65745;50.278;18.192;2022-12-18T09:23:50;101711.26;;;18.76;29.17
76794;BME280;65745;50.278;18.192;2022-12-18T09:26:23;101710.21;;;18.76;29.07
76794;BME280;65745;50.278;18.192;2022-12-18T09:28:55;101699.55;;;18.75;29.09
76794;BME280;65745;50.278;18.192;2022-12-18T09:31:27;101700.95;;;18.75;29.11
76794;BME280;65745;50.278;18.192;2022-12-18T09:33:59;101702.00;;;18.75;29.09
76794;BME280;65745;50.278;18.192;2022-12-18T09:36:31;101710.03;;;18.75;29.15
76794;BME280;65745;50.278;18.192;2022-12-18T09:39:04;101717.55;;;18.75;29.23
76794;BME280;65745;50.278;18.192;2022-12-18T09:41:43;101719.98;;;18.75;29.10
76794;BME280;65745;50.278;18.192;2022-12-18T09:44:24;101725.21;;;18.76;29.09
76794;BME280;65745;50.278;18.192;2022-12-18T09:47:09;101727.14;;;18.75;29.17
76794;BME280;65745;50.278;18.192;2022-12-18T09:49:45;101727.15;;;18.75;29.17
76794;BME280;65745;50.278;18.192;2022-12-18T09:52:21;101722.43;;;18.76;29.14
76794;BME280;65745;50.278;18.192;2022-12-18T09:55:00;101718.77;;;18.77;29.18
76794;BME280;65745;50.278;18.192;2022-12-18T09:57:35;101715.45;;;18.76;29.15
76794;BME280;65745;50.278;18.192;2022-12-18T10:00:19;101709.52;;;18.76;29.14
76794;BME280;65745;50.278;18.192;2022-12-18T10:02:53;101709.50;;;18.76;29.17
76794;BME280;65745;50.278;18.192;2022-12-18T10:05:36;101711.42;;;18.76;29.16
76794;BME280;65745;50.278;18.192;2022-12-18T10:08:13;101708.30;;;18.75;29.17
76794;BME280;65745;50.278;18.192;2022-12-18T10:10:51;101707.95;;;18.76;29.20
76794;BME280;65745;50.278;18.192;2022-12-18T10:13:31;101708.11;;;18.76;29.18
76794;BME280;65745;50.278;18.192;2022-12-18T10:16:16;101703.23;;;18.76;29.21
76794;BME280;65745;50.278;18.192;2022-12-18T10:19:01;101699.21;;;18.76;29.16
76794;BME280;65745;50.278;18.192;2022-12-18T10:21:41;101691.88;;;18.76;29.21
76794;BME280;65745;50.278;18.192;2022-12-18T10:24:22;101687.70;;;18.77;29.20
76794;BME280;65745;50.278;18.192;2022-12-18T10:27:04;101687.00;;;18.77;29.12
76794;BME280;65745;50.278;18.192;2022-12-18T10:29:42;101684.02;;;18.76;29.08
76794;BME280;65745;50.278;18.192;2022-12-18T10:32:17;101671.63;;;18.76;29.22
76794;BME280;65745;50.278;18.192;2022-12-18T10:34:54;101666.39;;;18.76;29.16
76794;BME280;65745;50.278;18.192;2022-12-18T10:37:31;101673.38;;;18.76;29.23
76794;BME280;65745;50.278;18.192;2022-12-18T10:40:12;101669.35;;;18.76;29.15
76794;BME280;65745;50.278;18.192;2022-12-18T10:43:04;101661.50;;;18.75;29.15
76794;BME280;65745;50.278;18.192;2022-12-18T10:45:37;101668.84;;;18.75;29.09
76794;BME280;65745;50.278;18.192;2022-12-18T10:48:21;101666.91;;;18.75;29.11
76794;BME280;65745;50.278;18.192;2022-12-18T10:50:53;101660.45;;;18.74;29.16
76794;BME280;65745;50.278;18.192;2022-12-18T10:53:44;101661.47;;;18.73;29.17
76794;BME280;65745;50.278;18.192;2022-12-18T10:56:24;101661.13;;;18.73;29.17
76794;BME280;65745;50.278;18.192;2022-12-18T10:59:03;101667.23;;;18.73;29.12
76794;BME280;65745;50.278;18.192;2022-12-18T11:01:50;101664.61;;;18.73;29.11
76794;BME280;65745;50.278;18.192;2022-12-18T11:04:25;101664.77;;;18.73;29.13
76794;BME280;65745;50.278;18.192;2022-12-18T11:07:00;101656.74;;;18.73;29.03
76794;BME280;65745;50.278;18.192;2022-12-18T11:09:34;101662.16;;;18.73;29.17
76794;BME280;65745;50.278;18.192;2022-12-18T11:12:21;101661.96;;;18.72;29.10
76794;BME280;65745;50.278;18.192;2022-12-18T11:14:58;101666.50;;;18.72;29.13
76794;BME280;65745;50.278;18.192;2022-12-18T11:17:33;101664.58;;;18.72;29.12
76794;BME280;65745;50.278;18.192;2022-12-18T11:20:19;101668.24;;;18.72;29.12
76794;BME280;65745;50.278;18.192;2022-12-18T11:22:58;101676.27;;;18.71;29.08
76794;BME280;65745;50.278;18.192;2022-12-18T11:25:32;101679.40;;;18.71;29.23
76794;BME280;65745;50.278;18.192;2022-12-18T11:28:25;101682.90;;;18.71;29.11
76794;BME280;65745;50.278;18.192;2022-12-18T11:31:22;101684.11;;;18.71;29.14
76794;BME280;65745;50.278;18.192;2022-12-18T11:34:00;101686.58;;;18.71;29.22
76794;BME280;65745;50.278;18.192;2022-12-18T11:36:55;101685.37;;;18.72;29.13
76794;BME280;65745;50.278;18.192;2022-12-18T11:39:34;101685.92;;;18.74;29.20
76794;BME280;65745;50.278;18.192;2022-12-18T11:42:14;101686.81;;;18.75;29.19
76794;BME280;65745;50.278;18.192;2022-12-18T11:44:52;101686.98;;;18.76;29.18
76794;BME280;65745;50.278;18.192;2022-12-18T11:47:31;101685.42;;;18.77;29.13
76794;BME280;65745;50.278;18.192;2022-12-18T11:50:12;101685.27;;;18.78;29.18
76794;BME280;65745;50.278;18.192;2022-12-18T11:52:46;101685.46;;;18.79;29.18
76794;BME280;65745;50.278;18.192;2022-12-18T11:55:33;101684.27;;;18.79;29.15
76794;BME280;65745;50.278;18.192;2022-12-18T11:58:14;101684.62;;;18.80;29.19
76794;BME280;65745;50.278;18.192;2022-12-18T12:01:03;101682.19;;;18.81;29.25
76794;BME280;65745;50.278;18.192;2022-12-18T12:03:53;101678.17;;;18.82;29.35
76794;BME280;65745;50.278;18.192;2022-12-18T12:06:34;101682.73;;;18.82;29.24
76794;BME280;65745;50.278;18.192;2022-12-18T12:09:17;101690.60;;;18.83;29.22
76794;BME280;65745;50.278;18.192;2022-12-18T12:12:05;101691.84;;;18.84;29.19
76794;BME280;65745;50.278;18.192;2022-12-18T12:14:49;101691.52;;;18.85;29.21
76794;BME280;65745;50.278;18.192;2022-12-18T12:17:33;101699.20;;;18.86;29.15
76794;BME280;65745;50.278;18.192;2022-12-18T12:20:13;101701.29;;;18.86;29.24
76794;BME280;65745;50.278;18.192;2022-12-18T12:22:54;101700.42;;;18.87;29.25
76794;BME280;65745;50.278;18.192;2022-12-18T12:25:35;101698.34;;;18.87;29.19
76794;BME280;65745;50.278;18.192;2022-12-18T12:28:23;101693.46;;;18.88;29.25
76794;BME280;65745;50.278;18.192;2022-12-18T12:31:05;101699.42;;;18.89;29.18
76794;BME280;65745;50.278;18.192;2022-12-18T12:33:49;101699.08;;;18.89;29.18
76794;BME280;65745;50.278;18.192;2022-12-18T12:36:29;101691.21;;;18.89;29.23
76794;BME280;65745;50.278;18.192;2022-12-18T12:39:08;101684.58;;;18.89;29.15
76794;BME280;65745;50.278;18.192;2022-12-18T12:41:43;101690.70;;;18.89;29.18
76794;BME280;65745;50.278;18.192;2022-12-18T12:44:38;101693.67;;;18.90;29.18
76794;BME280;65745;50.278;18.192;2022-12-18T12:47:15;101695.05;;;18.89;29.18
76794;BME280;65745;50.278;18.192;2022-12-18T12:49:48;101701.00;;;18.89;29.27
76794;BME280;65745;50.278;18.192;2022-12-18T12:52:30;101702.92;;;18.89;29.17
76794;BME280;65745;50.278;18.192;2022-12-18T12:55:13;101700.82;;;18.89;29.23
76794;BME280;65745;50.278;18.192;2022-12-18T12:57:54;101701.34;;;18.89;29.15
76794;BME280;65745;50.278;18.192;2022-12-18T13:00:29;101697.84;;;18.88;29.22
76794;BME280;65745;50.278;18.192;2022-12-18T13:03:12;101700.09;;;18.88;29.17
76794;BME280;65745;50.278;18.192;2022-12-18T13:05:50;101701.65;;;18.87;29.16
76794;BME280;65745;50.278;18.192;2022-12-18T13:08:26;101697.63;;;18.86;29.13
76794;BME280;65745;50.278;18.192;2022-12-18T13:11:03;101703.90;;;18.86;29.12
76794;BME280;65745;50.278;18.192;2022-12-18T13:13:54;101705.83;;;18.86;29.15
76794;BME280;65745;50.278;18.192;2022-12-18T13:16:27;101713.68;;;18.86;29.22
76794;BME280;65745;50.278;18.192;2022-12-18T13:19:00;101710.19;;;18.85;29.17
76794;BME280;65745;50.278;18.192;2022-12-18T13:21:34;101708.42;;;18.84;29.17
76794;BME280;65745;50.278;18.192;2022-12-18T13:24:25;101706.48;;;18.83;29.16
76794;BME280;65745;50.278;18.192;2022-12-18T13:26:58;101698.45;;;18.83;29.18